createdAt,value
2022-08-19T00:01:38.988Z,5.90
2022-08-19T00:04:08.128Z,6.13
2022-08-19T00:06:35.204Z,6.07
2022-08-19T00:09:02.151Z,6.03
2022-08-19T00:11:29.005Z,6.35
2022-08-19T00:13:57.612Z,5.97
2022-08-19T00:16:26.361Z,5.72
2022-08-19T00:18:53.492Z,6.05
2022-08-19T00:21:20.051Z,6.20
2022-08-19T00:23:47.052Z,5.53
2022-08-19T00:26:13.558Z,5.85
2022-08-19T00:28:40.061Z,7.05
2022-08-19T00:31:07.610Z,5.95
2022-08-19T00:33:34.432Z,7.03
2022-08-19T00:36:01.353Z,6.20
2022-08-19T00:38:37.330Z,6.28
2022-08-19T00:41:05.462Z,6.00
2022-08-19T00:43:32.007Z,6.57
2022-08-19T00:45:58.561Z,5.82
2022-08-19T00:48:25.048Z,6.72
2022-08-19T00:50:54.005Z,6.20
2022-08-19T00:53:21.905Z,6.20
2022-08-19T00:55:49.448Z,6.00
2022-08-19T00:58:19.967Z,6.47
2022-08-19T01:00:47.454Z,7.07
2022-08-19T01:03:15.971Z,6.80
2022-08-19T01:05:46.550Z,6.27
2022-08-19T01:08:13.130Z,6.17
2022-08-19T01:10:57.117Z,6.27
2022-08-19T01:13:25.867Z,6.00
2022-08-19T01:15:56.015Z,7.43
2022-08-19T01:18:22.674Z,6.93
2022-08-19T01:20:49.248Z,6.53
2022-08-19T01:23:16.334Z,6.80
2022-08-19T01:25:53.425Z,5.87
2022-08-19T01:28:39.774Z,7.03
2022-08-19T01:31:08.136Z,7.57
2022-08-19T01:33:34.898Z,6.47
2022-08-19T01:36:15.292Z,6.33
2022-08-19T01:38:44.284Z,6.43
2022-08-19T01:41:12.117Z,6.70
2022-08-19T01:43:39.212Z,6.33
2022-08-19T01:46:25.775Z,6.63
2022-08-19T01:48:52.276Z,6.03
2022-08-19T01:51:18.853Z,6.67
2022-08-19T01:53:48.247Z,6.28
2022-08-19T01:56:15.012Z,6.85
2022-08-19T01:58:44.260Z,6.10
2022-08-19T02:01:10.870Z,5.90
2022-08-19T02:03:37.377Z,6.37
2022-08-19T02:06:04.227Z,6.90
2022-08-19T02:08:31.052Z,6.33
2022-08-19T02:10:57.819Z,6.20
2022-08-19T02:13:26.187Z,6.10
2022-08-19T02:15:53.183Z,6.10
2022-08-19T02:18:19.858Z,6.23
2022-08-19T02:20:48.493Z,6.50
2022-08-19T02:23:16.749Z,7.17
2022-08-19T02:25:45.427Z,5.87
2022-08-19T02:28:16.613Z,6.43
2022-08-19T02:30:44.957Z,6.53
2022-08-19T02:33:11.527Z,6.53
2022-08-19T02:35:38.007Z,6.67
2022-08-19T02:38:23.157Z,6.43
2022-08-19T02:40:54.014Z,6.50
2022-08-19T02:43:24.015Z,7.43
2022-08-19T02:45:50.980Z,7.30
2022-08-19T02:48:21.800Z,7.60
2022-08-19T02:50:53.579Z,6.97
2022-08-19T02:53:20.326Z,6.70
2022-08-19T02:55:47.648Z,7.33
2022-08-19T02:58:14.760Z,5.50
2022-08-19T03:00:45.528Z,4.20
2022-08-19T03:03:12.014Z,4.37
2022-08-19T03:05:55.761Z,4.83
2022-08-19T03:08:23.582Z,3.97
2022-08-19T03:10:50.135Z,4.10
2022-08-19T03:13:17.823Z,4.50
2022-08-19T03:15:45.364Z,4.23
2022-08-19T03:18:12.231Z,4.10
2022-08-19T03:20:46.430Z,3.80
2022-08-19T03:23:16.311Z,4.20
2022-08-19T03:25:44.313Z,4.17
2022-08-19T03:28:12.844Z,4.07
2022-08-19T03:30:41.809Z,3.23
2022-08-19T03:33:10.990Z,3.23
2022-08-19T03:35:45.691Z,4.23
2022-08-19T03:38:12.172Z,3.57
2022-08-19T03:40:38.655Z,4.60
2022-08-19T03:43:05.235Z,3.37
2022-08-19T03:45:31.709Z,3.73
2022-08-19T03:47:58.209Z,3.73
2022-08-19T03:50:25.384Z,3.97
2022-08-19T03:52:52.622Z,3.43
2022-08-19T03:55:19.886Z,3.77
2022-08-19T03:57:46.927Z,3.80
2022-08-19T04:00:14.195Z,3.73
2022-08-19T04:02:41.578Z,3.60
2022-08-19T04:05:09.208Z,4.17
2022-08-19T04:07:35.772Z,4.17
2022-08-19T04:10:02.290Z,3.90
2022-08-19T04:12:29.280Z,4.30
2022-08-19T04:14:55.757Z,4.60
2022-08-19T04:17:23.259Z,4.00
2022-08-19T04:19:49.791Z,3.58
2022-08-19T04:22:16.356Z,3.97
2022-08-19T04:24:42.821Z,4.50
2022-08-19T04:27:09.308Z,3.95
2022-08-19T04:29:35.857Z,3.88
2022-08-19T04:32:09.230Z,4.30
2022-08-19T04:34:36.359Z,3.75
2022-08-19T04:37:22.802Z,3.38
2022-08-19T04:40:07.952Z,3.58
2022-08-19T04:42:40.512Z,4.07
2022-08-19T04:45:09.400Z,3.78
2022-08-19T04:47:47.842Z,4.15
2022-08-19T04:50:23.633Z,4.25
2022-08-19T04:52:51.940Z,4.00
2022-08-19T04:55:18.980Z,4.20
2022-08-19T04:57:45.493Z,3.97
2022-08-19T05:00:12.353Z,3.90
2022-08-19T05:02:39.276Z,4.10
2022-08-19T05:05:07.559Z,3.40
2022-08-19T05:07:34.374Z,3.60
2022-08-19T05:10:13.802Z,3.70
2022-08-19T05:12:40.337Z,3.78
2022-08-19T05:15:09.539Z,3.72
2022-08-19T05:17:38.753Z,4.30
2022-08-19T05:20:25.383Z,3.88
2022-08-19T05:22:52.029Z,3.20
2022-08-19T05:25:20.166Z,3.72
2022-08-19T05:27:47.083Z,3.17
2022-08-19T05:30:14.021Z,3.20
2022-08-19T05:32:48.079Z,4.04
2022-08-19T05:35:14.584Z,3.85
2022-08-19T05:37:41.538Z,4.32
2022-08-19T05:40:09.179Z,4.07
2022-08-19T05:42:44.336Z,3.94
2022-08-19T05:45:22.540Z,3.75
2022-08-19T05:47:49.288Z,4.38
2022-08-19T05:50:15.812Z,3.83
2022-08-19T05:52:43.740Z,3.40
2022-08-19T05:55:21.434Z,4.40
2022-08-19T05:57:47.948Z,3.95
2022-08-19T06:00:14.945Z,4.55
2022-08-19T06:02:42.021Z,4.43
2022-08-19T06:05:10.234Z,4.07
2022-08-19T06:07:37.723Z,4.63
2022-08-19T06:10:05.920Z,4.38
2022-08-19T06:12:35.401Z,3.95
2022-08-19T06:15:04.552Z,4.03
2022-08-19T06:17:32.140Z,4.13
2022-08-19T06:19:59.379Z,3.92
2022-08-19T06:22:26.209Z,3.63
2022-08-19T06:24:54.655Z,3.28
2022-08-19T06:27:21.485Z,3.88
2022-08-19T06:29:48.163Z,4.05
2022-08-19T06:32:16.166Z,4.07
2022-08-19T06:34:43.013Z,3.28
2022-08-19T06:37:09.605Z,3.63
2022-08-19T06:39:39.352Z,3.38
2022-08-19T06:42:12.484Z,3.60
2022-08-19T06:44:42.593Z,3.20
2022-08-19T06:47:14.846Z,2.67
2022-08-19T06:49:50.038Z,2.58
2022-08-19T06:52:17.087Z,2.47
2022-08-19T06:54:55.735Z,3.72
2022-08-19T06:57:23.838Z,3.17
2022-08-19T06:59:50.384Z,3.20
2022-08-19T07:04:48.285Z,2.30
2022-08-19T07:07:21.093Z,2.90
2022-08-19T07:09:58.606Z,2.40
2022-08-19T07:12:30.370Z,2.40
2022-08-19T07:14:58.721Z,2.65
2022-08-19T07:17:25.539Z,3.35
2022-08-19T07:19:54.195Z,2.28
2022-08-19T07:22:21.707Z,3.55
2022-08-19T07:24:51.576Z,3.08
2022-08-19T07:27:18.272Z,2.60
2022-08-19T07:29:56.289Z,2.67
2022-08-19T07:32:24.458Z,2.50
2022-08-19T07:34:52.133Z,2.30
2022-08-19T07:37:18.633Z,2.13
2022-08-19T07:39:45.231Z,2.60
2022-08-19T07:42:13.411Z,2.35
2022-08-19T07:47:47.988Z,2.80
2022-08-19T07:49:58.257Z,1.73
2022-08-19T07:52:24.797Z,3.10
2022-08-19T07:54:51.327Z,2.47
2022-08-19T07:57:17.855Z,3.10
2022-08-19T07:59:44.388Z,2.40
2022-08-19T08:02:10.917Z,2.90
2022-08-19T08:04:55.981Z,2.47
2022-08-19T08:07:40.798Z,2.90
2022-08-19T08:10:20.719Z,2.28
2022-08-19T08:13:06.880Z,2.38
2022-08-19T08:15:38.615Z,1.85
2022-08-19T08:18:08.606Z,2.63
2022-08-19T08:20:35.818Z,3.17
2022-08-19T08:23:21.116Z,2.42
2022-08-19T08:25:49.467Z,2.85
2022-08-19T08:28:17.688Z,2.72
2022-08-19T08:30:46.722Z,2.20
2022-08-19T08:35:46.664Z,2.20
2022-08-19T08:38:13.864Z,2.03
2022-08-19T08:40:40.436Z,2.17
2022-08-19T08:43:11.021Z,3.48
2022-08-19T08:45:42.616Z,2.08
2022-08-19T08:48:23.934Z,2.20
2022-08-19T08:50:53.673Z,2.20
2022-08-19T08:53:29.135Z,2.17
2022-08-19T08:55:57.640Z,2.47
2022-08-19T08:58:31.678Z,2.20
2022-08-19T09:00:58.570Z,2.58
2022-08-19T09:03:27.018Z,2.50
2022-08-19T09:05:58.685Z,2.72
2022-08-19T09:08:33.998Z,2.88
2022-08-19T09:11:01.764Z,1.90
2022-08-19T09:13:50.513Z,2.67
2022-08-19T09:16:21.973Z,2.58
2022-08-19T09:18:56.118Z,2.35
2022-08-19T09:21:30.228Z,2.47
2022-08-19T09:23:58.491Z,2.42
2022-08-19T09:26:47.254Z,2.47
2022-08-19T09:29:14.062Z,2.30
2022-08-19T09:31:40.580Z,2.90
2022-08-19T09:34:07.120Z,2.50
2022-08-19T09:36:39.891Z,2.60
2022-08-19T09:39:14.848Z,2.50
2022-08-19T09:41:43.031Z,2.22
2022-08-19T09:44:14.160Z,1.88
2022-08-19T09:46:40.643Z,2.45
2022-08-19T09:49:07.383Z,2.55
2022-08-19T09:51:34.087Z,2.33
2022-08-19T09:54:04.801Z,2.60
2022-08-19T09:56:31.571Z,2.50
2022-08-19T09:59:01.728Z,2.88
2022-08-19T10:01:29.757Z,2.30
2022-08-19T10:03:57.099Z,2.10
2022-08-19T10:06:43.251Z,2.58
2022-08-19T10:09:11.918Z,1.90
2022-08-19T10:11:46.174Z,2.30
2022-08-19T10:14:17.973Z,2.10
2022-08-19T10:16:44.549Z,2.30
2022-08-19T10:19:11.049Z,2.50
2022-08-19T10:21:37.605Z,2.70
2022-08-19T10:24:07.193Z,1.77
2022-08-19T10:26:38.109Z,2.47
2022-08-19T10:29:06.125Z,2.30
2022-08-19T10:32:00.647Z,2.38
2022-08-19T10:34:28.073Z,2.63
2022-08-19T10:36:56.291Z,2.47
2022-08-19T10:39:30.765Z,2.42
2022-08-19T10:41:57.887Z,2.00
2022-08-19T10:44:25.053Z,2.42
2022-08-19T10:46:59.961Z,2.40
2022-08-19T10:49:26.572Z,2.58
2022-08-19T10:52:18.794Z,2.58
2022-08-19T10:55:08.504Z,2.22
2022-08-19T11:00:22.451Z,2.30
2022-08-19T11:02:48.994Z,2.17
2022-08-19T11:05:15.942Z,1.90
2022-08-19T11:07:43.074Z,2.38
2022-08-19T11:10:13.153Z,2.20
2022-08-19T11:12:40.304Z,2.30
2022-08-19T11:15:08.711Z,2.55
2022-08-19T11:17:36.890Z,2.03
2022-08-19T11:20:06.187Z,2.50
2022-08-19T11:22:40.562Z,2.20
2022-08-19T11:25:09.176Z,2.10
2022-08-19T11:27:38.445Z,1.80
2022-08-19T11:30:05.249Z,2.65
2022-08-19T11:32:35.438Z,2.20
2022-08-19T11:35:02.138Z,2.55
2022-08-19T11:37:28.635Z,2.17
2022-08-19T11:39:55.462Z,2.25
2022-08-19T11:42:40.659Z,2.17
2022-08-19T11:45:07.466Z,2.42
2022-08-19T11:47:34.109Z,2.58
2022-08-19T11:50:00.620Z,2.13
2022-08-19T11:52:27.692Z,1.85
2022-08-19T11:54:54.579Z,2.13
2022-08-19T11:57:21.131Z,2.05
2022-08-19T11:59:53.810Z,2.58
2022-08-19T12:02:20.301Z,2.33
2022-08-19T12:04:46.782Z,2.70
2022-08-19T12:07:13.263Z,2.40
2022-08-19T12:09:42.819Z,2.13
2022-08-19T12:12:09.875Z,1.83
2022-08-19T12:14:36.803Z,2.25
2022-08-19T12:17:05.500Z,2.08
2022-08-19T12:19:31.970Z,2.28
2022-08-19T12:22:04.717Z,2.05
2022-08-19T12:24:32.712Z,2.15
2022-08-19T12:27:03.192Z,2.00
2022-08-19T12:29:30.454Z,2.15
2022-08-19T12:32:03.949Z,2.47
2022-08-19T12:34:31.398Z,2.50
2022-08-19T12:36:58.913Z,2.00
2022-08-19T12:39:25.688Z,2.50
2022-08-19T12:41:54.961Z,2.10
2022-08-19T12:44:29.552Z,2.05
2022-08-19T12:46:59.075Z,1.70
2022-08-19T12:49:52.301Z,1.63
2022-08-19T12:52:16.160Z,2.10
2022-08-19T12:54:44.183Z,2.67
2022-08-19T12:57:11.514Z,1.92
2022-08-19T12:59:38.471Z,2.28
2022-08-19T13:02:07.042Z,2.20
2022-08-19T13:04:36.177Z,2.35
2022-08-19T13:07:03.467Z,2.30
2022-08-19T13:09:30.069Z,2.50
2022-08-19T13:11:57.794Z,1.60
2022-08-19T13:14:24.340Z,2.20
2022-08-19T13:16:53.544Z,2.05
2022-08-19T13:19:22.030Z,2.20
2022-08-19T13:21:50.553Z,2.15
2022-08-19T13:24:17.252Z,2.13
2022-08-19T13:26:44.381Z,2.10
2022-08-19T13:29:29.486Z,2.10
2022-08-19T13:32:18.569Z,2.15
2022-08-19T13:34:47.597Z,2.35
2022-08-19T13:37:14.153Z,2.00
2022-08-19T13:39:41.005Z,1.60
2022-08-19T13:42:08.317Z,2.20
2022-08-19T13:44:34.892Z,2.30
2022-08-19T13:47:08.005Z,2.08
2022-08-19T13:49:36.917Z,2.17
2022-08-19T13:52:04.382Z,1.92
2022-08-19T13:54:30.956Z,1.83
2022-08-19T13:56:57.475Z,1.92
2022-08-19T13:59:23.964Z,1.80
2022-08-19T14:01:50.976Z,2.00
2022-08-19T14:04:17.476Z,2.10
2022-08-19T14:06:43.977Z,1.90
2022-08-19T14:09:10.431Z,2.15
2022-08-19T14:11:36.921Z,1.77
2022-08-19T14:14:03.432Z,2.50
2022-08-19T14:16:31.415Z,1.95
2022-08-19T14:18:58.152Z,2.45
2022-08-19T14:21:26.139Z,2.28
2022-08-19T14:23:52.758Z,2.00
2022-08-19T14:26:20.520Z,1.83
2022-08-19T14:28:47.603Z,1.95
2022-08-19T14:31:17.719Z,2.45
2022-08-19T14:33:44.229Z,1.92
2022-08-19T14:36:10.734Z,2.08
2022-08-19T14:38:37.539Z,2.03
2022-08-19T14:41:11.503Z,2.22
2022-08-19T14:43:38.013Z,2.25
2022-08-19T14:46:04.534Z,1.98
2022-08-19T14:48:31.020Z,2.13
2022-08-19T14:50:57.607Z,1.77
2022-08-19T14:53:24.073Z,2.08
2022-08-19T14:55:50.550Z,1.70
2022-08-19T14:58:29.870Z,2.00
2022-08-19T15:00:57.444Z,1.83
2022-08-19T15:03:23.946Z,1.92
2022-08-19T15:05:50.438Z,2.22
2022-08-19T15:08:16.927Z,2.17
2022-08-19T15:10:43.437Z,2.25
2022-08-19T15:13:10.435Z,2.20
2022-08-19T15:15:36.948Z,1.98
2022-08-19T15:18:04.838Z,2.35
2022-08-19T15:20:31.849Z,1.83
2022-08-19T15:22:59.949Z,2.00
2022-08-19T15:25:27.387Z,1.80
2022-08-19T15:27:54.386Z,2.10
2022-08-19T15:30:23.303Z,1.80
2022-08-19T15:32:50.022Z,2.00
2022-08-19T15:35:18.293Z,1.90
2022-08-19T15:37:46.109Z,2.20
2022-08-19T15:40:12.973Z,1.90
2022-08-19T15:42:42.425Z,2.40
2022-08-19T15:45:10.184Z,2.17
2022-08-19T15:47:36.922Z,2.45
2022-08-19T15:50:10.554Z,2.55
2022-08-19T15:52:48.326Z,2.33
2022-08-19T15:55:32.965Z,2.10
2022-08-19T15:58:28.949Z,2.00
2022-08-19T16:01:25.973Z,2.17
2022-08-19T16:04:30.109Z,2.05
2022-08-19T16:06:57.878Z,2.10
2022-08-19T16:09:27.734Z,2.40
2022-08-19T16:12:01.673Z,1.75
2022-08-19T16:14:29.780Z,2.22
2022-08-19T16:16:56.993Z,2.28
2022-08-19T16:19:24.460Z,2.13
2022-08-19T16:21:52.514Z,2.42
2022-08-19T16:24:20.826Z,2.13
2022-08-19T16:26:48.302Z,2.25
2022-08-19T16:29:33.212Z,2.58
2022-08-19T16:32:01.032Z,2.22
2022-08-19T16:34:29.409Z,2.30
2022-08-19T16:36:56.111Z,2.30
2022-08-19T16:39:23.814Z,1.95
2022-08-19T16:41:51.040Z,2.22
2022-08-19T16:44:18.868Z,2.60
2022-08-19T16:46:47.391Z,2.38
2022-08-19T16:49:53.123Z,2.17
2022-08-19T16:52:12.268Z,2.53
2022-08-19T16:54:41.360Z,2.45
2022-08-19T16:57:11.853Z,2.42
2022-08-19T16:59:39.539Z,2.55
2022-08-19T17:02:15.961Z,2.58
2022-08-19T17:04:42.454Z,2.20
2022-08-19T17:07:09.594Z,2.22
2022-08-19T17:09:36.460Z,1.90
2022-08-19T17:12:04.646Z,2.30
2022-08-19T17:14:31.128Z,2.63
2022-08-19T17:16:57.585Z,2.92
2022-08-19T17:19:24.073Z,2.45
2022-08-19T17:21:50.577Z,2.40
2022-08-19T17:24:17.104Z,3.50
2022-08-19T17:26:43.975Z,2.85
2022-08-19T17:29:10.470Z,3.53
2022-08-19T17:31:37.345Z,3.97
2022-08-19T17:34:04.558Z,3.42
2022-08-19T17:36:31.893Z,4.75
2022-08-19T17:38:59.544Z,3.70
2022-08-19T17:41:27.361Z,4.97
2022-08-19T17:43:53.853Z,4.57
2022-08-19T17:46:20.533Z,3.90
2022-08-19T17:48:52.307Z,3.30
2022-08-19T17:51:22.394Z,2.55
2022-08-19T17:53:50.708Z,5.28
2022-08-19T17:56:17.271Z,3.13
2022-08-19T17:58:46.642Z,3.40
2022-08-19T18:01:24.657Z,5.55
2022-08-19T18:03:52.737Z,4.70
2022-08-19T18:06:19.205Z,5.22
2022-08-19T18:08:49.010Z,4.55
2022-08-19T18:11:16.431Z,5.15
2022-08-19T18:13:42.944Z,4.10
2022-08-19T18:16:13.341Z,4.97
2022-08-19T18:18:40.352Z,4.63
2022-08-19T18:21:07.495Z,4.03
2022-08-19T18:23:44.625Z,3.78
2022-08-19T18:26:12.267Z,5.03
2022-08-19T18:28:46.874Z,7.90
2022-08-19T18:31:17.210Z,6.93
2022-08-19T18:33:44.731Z,8.63
2022-08-19T18:36:11.389Z,7.28
2022-08-19T18:38:56.300Z,5.80
2022-08-19T18:41:41.111Z,4.60
2022-08-19T18:44:28.379Z,4.63
2022-08-19T18:47:13.568Z,3.58
2022-08-19T18:49:40.541Z,4.35
2022-08-19T18:52:07.130Z,4.10
2022-08-19T18:54:34.480Z,4.33
2022-08-19T18:57:01.400Z,4.18
2022-08-19T18:59:30.202Z,4.25
2022-08-19T19:01:57.636Z,3.80
2022-08-19T19:04:26.106Z,4.78
2022-08-19T19:06:52.978Z,3.90
2022-08-19T19:09:21.171Z,4.35
2022-08-19T19:11:50.347Z,4.40
2022-08-19T19:14:45.581Z,4.28
2022-08-19T19:17:12.973Z,4.90
2022-08-19T19:19:42.681Z,3.70
2022-08-19T19:22:11.663Z,3.92
2022-08-19T19:24:38.734Z,4.22
2022-08-19T19:27:10.226Z,3.33
2022-08-19T19:29:37.665Z,3.55
2022-08-19T19:32:08.151Z,4.05
2022-08-19T19:34:34.660Z,3.72
2022-08-19T19:37:01.168Z,4.18
2022-08-19T19:39:30.727Z,3.58
2022-08-19T19:42:20.014Z,2.92
2022-08-19T19:44:48.845Z,4.00
2022-08-19T19:47:16.137Z,3.83
2022-08-19T19:50:03.983Z,3.42
2022-08-19T19:52:29.708Z,3.78
2022-08-19T19:54:56.939Z,4.13
2022-08-19T19:57:23.838Z,3.60
2022-08-19T19:59:51.544Z,3.63
2022-08-19T20:02:18.361Z,3.97
2022-08-19T20:04:45.066Z,3.95
2022-08-19T20:07:11.560Z,3.42
2022-08-19T20:09:58.246Z,4.10
2022-08-19T20:12:24.451Z,7.28
2022-08-19T20:14:50.891Z,5.70
2022-08-19T20:17:17.622Z,4.63
2022-08-19T20:19:44.784Z,4.20
2022-08-19T20:22:13.940Z,3.60
2022-08-19T20:24:42.409Z,3.58
2022-08-19T20:27:09.272Z,3.60
2022-08-19T20:29:41.649Z,4.05
2022-08-19T20:32:11.058Z,3.72
2022-08-19T20:34:37.796Z,4.13
2022-08-19T20:37:04.736Z,4.55
2022-08-19T20:39:31.227Z,3.92
2022-08-19T20:41:57.718Z,4.20
2022-08-19T20:44:25.552Z,4.05
2022-08-19T20:46:55.574Z,3.95
2022-08-19T20:49:26.946Z,3.55
2022-08-19T20:51:54.644Z,4.00
2022-08-19T20:54:21.434Z,3.53
2022-08-19T20:56:47.872Z,3.50
2022-08-19T20:59:14.494Z,4.20
2022-08-19T21:01:40.997Z,4.43
2022-08-19T21:04:07.571Z,4.10
2022-08-19T21:06:34.155Z,4.10
2022-08-19T21:09:00.672Z,4.00
2022-08-19T21:11:27.161Z,2.90
2022-08-19T21:13:53.821Z,3.75
2022-08-19T21:16:20.302Z,3.60
2022-08-19T21:18:46.755Z,3.45
2022-08-19T21:21:13.238Z,4.22
2022-08-19T21:23:40.072Z,3.80
2022-08-19T21:26:06.599Z,3.60
2022-08-19T21:28:36.196Z,3.60
2022-08-19T21:31:04.056Z,3.20
2022-08-19T21:33:31.988Z,3.35
2022-08-19T21:36:00.162Z,3.03
2022-08-19T21:38:27.104Z,3.22
2022-08-19T21:40:53.736Z,3.65
2022-08-19T21:43:20.303Z,2.85
2022-08-19T21:45:47.594Z,3.20
2022-08-19T21:48:14.689Z,3.65
2022-08-19T21:50:42.151Z,3.08
2022-08-19T21:53:08.972Z,3.67
2022-08-19T21:55:38.625Z,3.00
2022-08-19T21:58:05.126Z,3.25
2022-08-19T22:00:32.195Z,3.50
2022-08-19T22:02:58.802Z,3.10
2022-08-19T22:05:25.942Z,3.45
2022-08-19T22:07:53.656Z,2.78
2022-08-19T22:10:20.478Z,3.50
2022-08-19T22:12:51.340Z,2.88
2022-08-19T22:15:20.546Z,2.78
2022-08-19T22:17:47.164Z,3.03
2022-08-19T22:20:14.977Z,3.08
2022-08-19T22:22:50.207Z,3.00
2022-08-19T22:25:31.575Z,3.53
2022-08-19T22:28:00.556Z,3.13
2022-08-19T22:30:32.399Z,3.38
2022-08-19T22:33:01.384Z,3.20
2022-08-19T22:35:31.375Z,3.03
2022-08-19T22:38:00.917Z,3.40
2022-08-19T22:40:28.230Z,3.63
2022-08-19T22:43:02.187Z,3.97
2022-08-19T22:45:29.202Z,3.40
2022-08-19T22:47:55.837Z,3.00
2022-08-19T22:50:22.637Z,3.28
2022-08-19T22:52:52.209Z,3.53
2022-08-19T22:55:18.999Z,3.27
2022-08-19T22:57:45.465Z,3.25
2022-08-19T23:00:13.329Z,3.53
2022-08-19T23:02:51.358Z,3.35
2022-08-19T23:05:21.783Z,3.17
2022-08-19T23:07:52.307Z,3.33
2022-08-19T23:10:26.752Z,3.22
2022-08-19T23:12:54.637Z,3.75
2022-08-19T23:15:24.329Z,3.60
2022-08-19T23:17:51.377Z,4.28
2022-08-19T23:20:17.958Z,3.72
2022-08-19T23:22:47.584Z,3.00
2022-08-19T23:25:16.150Z,3.63
2022-08-19T23:28:01.571Z,3.00
2022-08-19T23:30:28.602Z,2.75
2022-08-19T23:32:55.274Z,3.22
2022-08-19T23:35:32.506Z,3.64
2022-08-19T23:37:59.313Z,2.85
2022-08-19T23:40:25.974Z,3.60
2022-08-19T23:42:53.762Z,3.28
2022-08-19T23:45:23.683Z,3.95
2022-08-19T23:47:51.004Z,2.80
2022-08-19T23:50:20.341Z,3.20
2022-08-19T23:52:51.488Z,3.45
2022-08-19T23:55:20.267Z,3.00
2022-08-19T23:57:46.748Z,3.63
